createdAt,value
2023-03-22T00:01:24.085Z,100902.56
2023-03-22T00:03:52.686Z,100899.38
2023-03-22T00:06:20.509Z,100900.38
2023-03-22T00:08:52.347Z,100901.75
2023-03-22T00:11:21.434Z,100905.75
2023-03-22T00:13:48.840Z,100900.38
2023-03-22T00:16:17.602Z,100905.75
2023-03-22T00:18:45.031Z,100902.53
2023-03-22T00:21:14.829Z,100902.31
2023-03-22T00:23:42.817Z,100896.69
2023-03-22T00:26:11.867Z,100896.84
2023-03-22T00:28:39.987Z,100898.41
2023-03-22T00:31:07.931Z,100900.44
2023-03-22T00:33:36.447Z,100891.09
2023-03-22T00:36:09.390Z,100887.31
2023-03-22T00:38:45.176Z,100884.13
2023-03-22T00:41:14.402Z,100886.53
2023-03-22T00:43:42.372Z,100872.06
2023-03-22T00:46:11.333Z,100874.31
2023-03-22T00:48:39.068Z,100874.06
2023-03-22T00:51:07.599Z,100875.22
2023-03-22T00:53:36.636Z,100872.00
2023-03-22T00:56:06.117Z,100871.13
2023-03-22T00:58:43.550Z,100869.47
2023-03-22T01:01:14.848Z,100872.09
2023-03-22T01:03:43.824Z,100871.19
2023-03-22T01:06:14.933Z,100871.97
2023-03-22T01:08:42.251Z,100868.91
2023-03-22T01:11:10.131Z,100858.84
2023-03-22T01:13:38.763Z,100865.44
2023-03-22T01:16:07.099Z,100861.91
2023-03-22T01:18:35.311Z,100867.03
2023-03-22T01:21:03.776Z,100867.63
2023-03-22T01:23:31.977Z,100868.53
2023-03-22T01:26:00.125Z,100863.84
2023-03-22T01:28:28.672Z,100865.56
2023-03-22T01:31:00.620Z,100861.56
2023-03-22T01:33:27.947Z,100862.50
2023-03-22T01:35:55.515Z,100863.06
2023-03-22T01:38:23.111Z,100864.16
2023-03-22T01:40:55.807Z,100861.28
2023-03-22T01:43:23.202Z,100871.09
2023-03-22T01:45:52.034Z,100870.84
2023-03-22T01:48:49.096Z,100864.38
2023-03-22T01:51:25.426Z,100866.31
2023-03-22T01:54:09.505Z,100873.00
2023-03-22T01:56:40.697Z,100864.22
2023-03-22T01:59:14.647Z,100864.22
2023-03-22T02:02:05.294Z,100871.66
2023-03-22T02:04:35.944Z,100874.38
2023-03-22T02:07:10.244Z,100867.78
2023-03-22T02:09:46.632Z,100869.72
2023-03-22T02:12:50.644Z,100873.63
2023-03-22T02:15:49.339Z,100865.03
2023-03-22T02:18:49.072Z,100859.19
2023-03-22T02:21:45.523Z,100864.44
2023-03-22T02:24:18.443Z,100858.50
2023-03-22T02:26:47.198Z,100855.97
2023-03-22T02:29:30.075Z,100852.44
2023-03-22T02:32:25.055Z,100855.16
2023-03-22T02:35:20.651Z,100851.97
2023-03-22T02:37:51.178Z,100846.53
2023-03-22T02:40:39.437Z,100849.72
2023-03-22T02:43:34.253Z,100848.47
2023-03-22T02:46:10.302Z,100851.69
2023-03-22T02:48:50.796Z,100848.72
2023-03-22T02:51:25.821Z,100850.34
2023-03-22T02:53:59.028Z,100847.97
2023-03-22T02:56:34.670Z,100858.63
2023-03-22T02:59:06.266Z,100846.94
2023-03-22T03:01:39.613Z,100860.34
2023-03-22T03:04:12.853Z,100863.28
2023-03-22T03:06:46.220Z,100846.56
2023-03-22T03:09:18.185Z,100850.03
2023-03-22T03:11:47.872Z,100860.00
2023-03-22T03:14:31.676Z,100853.34
2023-03-22T03:17:13.121Z,100861.53
2023-03-22T03:20:11.573Z,100856.31
2023-03-22T03:22:52.323Z,100862.78
2023-03-22T03:25:34.648Z,100860.53
2023-03-22T03:28:23.061Z,100868.75
2023-03-22T03:30:59.250Z,100868.44
2023-03-22T03:33:29.017Z,100867.38
2023-03-22T03:36:01.943Z,100868.22
2023-03-22T03:38:33.597Z,100875.13
2023-03-22T03:41:04.359Z,100871.94
2023-03-22T03:43:34.275Z,100882.31
2023-03-22T03:46:02.361Z,100875.56
2023-03-22T03:48:33.402Z,100878.91
2023-03-22T03:51:02.146Z,100869.31
2023-03-22T03:53:30.537Z,100869.97
2023-03-22T03:55:58.073Z,100877.63
2023-03-22T03:58:30.493Z,100875.34
2023-03-22T04:00:57.958Z,100876.00
2023-03-22T04:03:50.779Z,100874.72
2023-03-22T04:06:41.734Z,100877.75
2023-03-22T04:09:14.314Z,100873.09
2023-03-22T04:11:45.571Z,100879.03
2023-03-22T04:14:14.530Z,100873.56
2023-03-22T04:16:41.934Z,100877.59
2023-03-22T04:19:13.215Z,100876.34
2023-03-22T04:21:40.721Z,100876.34
2023-03-22T04:24:10.010Z,100868.34
2023-03-22T04:26:41.322Z,100871.56
2023-03-22T04:29:22.011Z,100874.47
2023-03-22T04:31:53.760Z,100871.28
2023-03-22T04:34:29.865Z,100870.78
2023-03-22T04:37:02.661Z,100871.56
2023-03-22T04:39:35.630Z,100870.94
2023-03-22T04:42:32.581Z,100874.78
2023-03-22T04:45:12.069Z,100873.34
2023-03-22T04:47:41.208Z,100877.53
2023-03-22T04:50:09.377Z,100868.59
2023-03-22T04:53:03.190Z,100867.44
2023-03-22T04:55:34.195Z,100864.69
2023-03-22T04:58:02.208Z,100875.59
2023-03-22T05:00:30.322Z,100874.50
2023-03-22T05:02:58.480Z,100874.50
2023-03-22T05:05:40.940Z,100878.53
2023-03-22T05:08:08.568Z,100881.28
2023-03-22T05:10:40.530Z,100884.16
2023-03-22T05:13:08.247Z,100886.06
2023-03-22T05:15:41.858Z,100888.44
2023-03-22T05:18:10.352Z,100887.19
2023-03-22T05:20:38.891Z,100896.47
2023-03-22T05:23:13.467Z,100894.53
2023-03-22T05:25:45.261Z,100896.13
2023-03-22T05:28:19.506Z,100889.88
2023-03-22T05:30:57.042Z,100901.09
2023-03-22T05:33:54.289Z,100899.00
2023-03-22T05:36:24.442Z,100905.72
2023-03-22T05:39:27.167Z,100898.34
2023-03-22T05:41:55.352Z,100899.81
2023-03-22T05:44:23.041Z,100906.53
2023-03-22T05:47:00.103Z,100907.47
2023-03-22T05:49:34.219Z,100907.16
2023-03-22T05:52:04.467Z,100914.38
2023-03-22T05:54:46.312Z,100908.19
2023-03-22T05:57:14.736Z,100910.59
2023-03-22T05:59:42.164Z,100908.50
2023-03-22T06:02:16.003Z,100895.16
2023-03-22T06:04:43.402Z,100906.69
2023-03-22T06:07:16.181Z,100908.81
2023-03-22T06:09:49.458Z,100901.63
2023-03-22T06:12:24.800Z,100920.69
2023-03-22T06:15:14.863Z,100919.88
2023-03-22T06:17:57.971Z,100913.66
2023-03-22T06:20:28.547Z,100918.41
2023-03-22T06:23:02.289Z,100924.56
2023-03-22T06:25:29.669Z,100919.66
2023-03-22T06:27:57.096Z,100912.16
2023-03-22T06:30:25.697Z,100911.38
2023-03-22T06:33:10.546Z,100916.19
2023-03-22T06:35:41.876Z,100916.13
2023-03-22T06:38:13.381Z,100914.28
2023-03-22T06:40:41.098Z,100920.91
2023-03-22T06:43:09.697Z,100916.81
2023-03-22T06:45:40.428Z,100914.47
2023-03-22T06:48:08.245Z,100909.16
2023-03-22T06:50:48.314Z,100915.53
2023-03-22T06:53:20.216Z,100914.72
2023-03-22T06:55:48.075Z,100921.56
2023-03-22T06:58:19.184Z,100917.47
2023-03-22T07:00:46.572Z,100915.47
2023-03-22T07:03:15.292Z,100911.56
2023-03-22T07:06:03.689Z,100909.81
2023-03-22T07:08:34.521Z,100913.41
2023-03-22T07:11:04.063Z,100914.22
2023-03-22T07:13:32.505Z,100916.88
2023-03-22T07:16:04.183Z,100908.16
2023-03-22T07:18:36.740Z,100922.13
2023-03-22T07:21:04.276Z,100911.72
2023-03-22T07:23:32.301Z,100917.31
2023-03-22T07:26:06.578Z,100927.63
2023-03-22T07:28:36.229Z,100926.16
2023-03-22T07:31:09.930Z,100931.59
2023-03-22T07:33:46.476Z,100920.91
2023-03-22T07:36:14.678Z,100929.16
2023-03-22T07:38:42.146Z,100929.47
2023-03-22T07:41:15.408Z,100923.88
2023-03-22T07:44:00.200Z,100926.38
2023-03-22T07:46:40.580Z,100923.19
2023-03-22T07:49:22.149Z,100931.19
2023-03-22T07:51:49.562Z,100929.75
2023-03-22T07:54:32.121Z,100929.69
2023-03-22T07:57:02.615Z,100934.88
2023-03-22T07:59:31.434Z,100932.59
2023-03-22T08:01:59.761Z,100938.47
2023-03-22T08:04:32.043Z,100949.31
2023-03-22T08:07:04.645Z,100933.59
2023-03-22T08:09:32.362Z,100935.72
2023-03-22T08:11:59.755Z,100938.84
2023-03-22T08:14:36.038Z,100941.84
2023-03-22T08:17:07.061Z,100938.56
2023-03-22T08:19:34.910Z,100940.66
2023-03-22T08:22:03.365Z,100941.50
2023-03-22T08:24:54.101Z,100934.84
2023-03-22T08:27:27.387Z,100936.84
2023-03-22T08:29:55.252Z,100940.34
2023-03-22T08:32:22.618Z,100934.31
2023-03-22T08:34:50.028Z,100935.41
2023-03-22T08:37:20.264Z,100935.91
2023-03-22T08:39:48.480Z,100928.13
2023-03-22T08:42:19.019Z,100922.44
2023-03-22T08:44:47.427Z,100921.53
2023-03-22T08:47:15.497Z,100928.81
2023-03-22T08:49:44.172Z,100936.16
2023-03-22T08:52:17.678Z,100930.63
2023-03-22T08:54:59.176Z,100937.25
2023-03-22T08:57:50.287Z,100936.66
2023-03-22T09:00:45.749Z,100935.88
2023-03-22T09:03:30.448Z,100940.69
2023-03-22T09:05:58.720Z,100934.91
2023-03-22T09:08:29.329Z,100934.09
2023-03-22T09:11:04.964Z,100935.47
2023-03-22T09:13:32.391Z,100936.28
2023-03-22T09:16:01.978Z,100947.06
2023-03-22T09:18:32.416Z,100942.00
2023-03-22T09:21:04.417Z,100936.81
2023-03-22T09:23:42.055Z,100940.44
2023-03-22T09:26:11.229Z,100944.09
2023-03-22T09:28:39.306Z,100949.50
2023-03-22T09:31:10.383Z,100943.31
2023-03-22T09:33:41.392Z,100946.84
2023-03-22T09:36:11.953Z,100936.19
2023-03-22T09:38:41.372Z,100949.03
2023-03-22T09:41:14.852Z,100944.91
2023-03-22T09:43:57.244Z,100951.91
2023-03-22T09:46:36.950Z,100944.25
2023-03-22T09:49:50.473Z,100947.13
2023-03-22T09:52:20.043Z,100941.22
2023-03-22T09:54:47.621Z,100931.47
2023-03-22T09:57:37.442Z,100932.16
2023-03-22T10:00:52.534Z,100932.81
2023-03-22T10:03:34.435Z,100917.47
2023-03-22T10:06:18.963Z,100923.19
2023-03-22T10:09:15.765Z,100921.22
2023-03-22T10:11:52.353Z,100916.91
2023-03-22T10:14:45.440Z,100917.72
2023-03-22T10:17:17.415Z,100915.69
2023-03-22T10:19:57.796Z,100922.31
2023-03-22T10:22:30.931Z,100929.03
2023-03-22T10:25:00.483Z,100918.69
2023-03-22T10:27:30.284Z,100920.97
2023-03-22T10:30:24.481Z,100928.31
2023-03-22T10:33:03.332Z,100917.00
2023-03-22T10:35:32.091Z,100916.41
2023-03-22T10:38:03.813Z,100914.25
2023-03-22T10:40:35.671Z,100907.47
2023-03-22T10:43:28.117Z,100904.13
2023-03-22T10:45:56.928Z,100904.06
2023-03-22T10:48:35.332Z,100907.22
2023-03-22T10:51:04.218Z,100895.41
2023-03-22T10:53:40.867Z,100895.06
2023-03-22T10:56:18.772Z,100897.22
2023-03-22T10:58:47.938Z,100891.06
2023-03-22T11:01:25.512Z,100887.56
2023-03-22T11:04:08.042Z,100892.28
2023-03-22T11:06:40.897Z,100884.75
2023-03-22T11:09:15.815Z,100892.09
2023-03-22T11:11:55.723Z,100885.69
2023-03-22T11:14:37.053Z,100891.34
2023-03-22T11:17:08.329Z,100885.59
2023-03-22T11:19:42.082Z,100875.69
2023-03-22T11:22:31.990Z,100875.16
2023-03-22T11:25:00.875Z,100873.31
2023-03-22T11:27:30.611Z,100876.72
2023-03-22T11:30:20.119Z,100875.44
2023-03-22T11:32:48.935Z,100877.72
2023-03-22T11:35:27.572Z,100870.00
2023-03-22T11:37:56.322Z,100873.88
2023-03-22T11:40:29.281Z,100874.34
2023-03-22T11:43:11.268Z,100863.28
2023-03-22T11:45:42.862Z,100871.47
2023-03-22T11:48:14.849Z,100862.00
2023-03-22T11:50:44.578Z,100855.00
2023-03-22T11:53:24.550Z,100853.50
2023-03-22T11:55:55.705Z,100850.00
2023-03-22T11:58:24.036Z,100848.47
2023-03-22T12:00:53.636Z,100846.78
2023-03-22T12:03:25.026Z,100838.78
2023-03-22T12:05:53.358Z,100837.47
2023-03-22T12:08:36.007Z,100841.31
2023-03-22T12:11:11.038Z,100845.69
2023-03-22T12:13:46.701Z,100835.50
2023-03-22T12:16:22.977Z,100834.75
2023-03-22T12:19:06.910Z,100824.09
2023-03-22T12:21:34.826Z,100830.63
2023-03-22T12:24:04.466Z,100831.94
2023-03-22T12:26:33.655Z,100833.63
2023-03-22T12:29:18.859Z,100823.25
2023-03-22T12:32:00.044Z,100828.88
2023-03-22T12:34:41.416Z,100819.91
2023-03-22T12:37:15.052Z,100801.53
2023-03-22T12:40:01.991Z,100809.13
2023-03-22T12:42:47.550Z,100805.09
2023-03-22T12:45:23.397Z,100803.28
2023-03-22T12:48:23.744Z,100799.56
2023-03-22T12:50:57.130Z,100799.38
2023-03-22T12:53:42.616Z,100789.53
2023-03-22T12:56:52.382Z,100789.59
2023-03-22T12:59:28.641Z,100786.00
2023-03-22T13:02:23.317Z,100778.53
2023-03-22T13:04:55.865Z,100778.22
2023-03-22T13:07:47.655Z,100778.88
2023-03-22T13:10:30.066Z,100775.09
2023-03-22T13:13:09.666Z,100777.59
2023-03-22T13:15:42.111Z,100779.19
2023-03-22T13:18:50.043Z,100770.72
2023-03-22T13:21:22.806Z,100770.66
2023-03-22T13:24:02.370Z,100767.69
2023-03-22T13:26:55.244Z,100755.00
2023-03-22T13:29:38.287Z,100752.56
2023-03-22T13:32:29.919Z,100759.31
2023-03-22T13:34:57.677Z,100760.69
2023-03-22T13:37:30.234Z,100763.94
2023-03-22T13:40:02.177Z,100754.31
2023-03-22T13:42:38.775Z,100753.50
2023-03-22T13:45:31.589Z,100754.47
2023-03-22T13:48:12.418Z,100747.66
2023-03-22T13:50:40.377Z,100748.53
2023-03-22T13:53:21.548Z,100741.78
2023-03-22T13:55:48.919Z,100739.59
2023-03-22T13:58:38.198Z,100740.28
2023-03-22T14:01:14.996Z,100746.25
2023-03-22T14:03:46.149Z,100735.47
2023-03-22T14:06:26.016Z,100724.22
2023-03-22T14:09:02.063Z,100730.47
2023-03-22T14:11:39.620Z,100723.88
2023-03-22T14:14:12.501Z,100719.97
2023-03-22T14:17:00.626Z,100715.09
2023-03-22T14:19:32.765Z,100701.44
